Time;durP1;ratioP1;P1;durP2;ratioP2;P2;SDS_P1;SDS_P2;PMS_P1;PMS_P2;Temp;Humidity;BMP_temperature;BMP_pressure;BME280_temperature;BME280_humidity;BME280_pressure;Samples;Min_cycle;Max_cycle;Signal;HPM_P1;HPM_P2
2022/11/23 00:01:35;;;;;;;2.10;1.00;;;;;;;;;;4905727;29;20050;-86
2022/11/23 00:04:07;;;;;;;1.50;1.10;;;;;;;;;;4906163;29;20111;-84
2022/11/23 00:06:33;;;;;;;2.22;1.10;;;;;;;;;;4922735;29;20036;-85
2022/11/23 00:08:59;;;;;;;1.10;1.00;;;;;;;;;;4904932;29;20488;-85
2022/11/23 00:11:26;;;;;;;1.77;0.95;;;;;;;;;;4922316;29;20063;-85
2022/11/23 00:13:52;;;;;;;2.15;1.30;;;;;;;;;;4889930;29;20442;-86
2022/11/23 00:16:27;;;;;;;2.00;1.27;;;;;;;;;;4889631;29;20032;-86
2022/11/23 00:18:57;;;;;;;2.05;1.10;;;;;;;;;;4922005;29;20036;-86
2022/11/23 00:21:24;;;;;;;2.50;1.20;;;;;;;;;;4923099;29;20035;-86
2022/11/23 00:23:50;;;;;;;2.00;1.20;;;;;;;;;;4905403;29;20031;-84
2022/11/23 00:26:16;;;;;;;2.58;1.40;;;;;;;;;;4922337;29;20040;-85
2022/11/23 00:28:42;;;;;;;2.30;1.20;;;;;;;;;;4922698;29;20099;-85
2022/11/23 00:31:15;;;;;;;1.02;0.90;;;;;;;;;;4905268;29;20476;-85
2022/11/23 00:33:41;;;;;;;0.82;0.80;;;;;;;;;;4922291;29;20040;-84
2022/11/23 00:36:10;;;;;;;1.25;1.00;;;;;;;;;;4904953;29;20040;-84
2022/11/23 00:38:36;;;;;;;1.30;0.93;;;;;;;;;;4904890;29;20043;-86
2022/11/23 00:41:07;;;;;;;1.40;0.93;;;;;;;;;;4905281;29;20044;-86
2022/11/23 00:43:33;;;;;;;1.00;0.90;;;;;;;;;;4904632;29;20036;-85
2022/11/23 00:46:21;;;;;;;1.27;1.10;;;;;;;;;;4922458;29;20111;-84
2022/11/23 00:48:49;;;;;;;1.58;1.02;;;;;;;;;;4905269;29;20044;-86
2022/11/23 00:51:23;;;;;;;1.60;1.38;;;;;;;;;;4921899;29;20028;-85
2022/11/23 00:53:50;;;;;;;1.50;1.13;;;;;;;;;;4888213;29;20326;-85
2022/11/23 00:56:17;;;;;;;1.67;1.13;;;;;;;;;;4919717;29;20051;-86
2022/11/23 00:58:49;;;;;;;1.92;1.10;;;;;;;;;;4904754;29;20039;-86
2022/11/23 01:01:19;;;;;;;1.33;1.00;;;;;;;;;;4904822;29;20130;-86
2022/11/23 01:03:52;;;;;;;1.00;0.73;;;;;;;;;;4921523;29;20098;-85
2022/11/23 01:06:21;;;;;;;1.40;0.90;;;;;;;;;;4889109;29;20164;-84
2022/11/23 01:09:14;;;;;;;1.08;0.85;;;;;;;;;;4905532;29;20104;-85
2022/11/23 01:11:40;;;;;;;1.35;0.70;;;;;;;;;;4902522;29;20079;-86
2022/11/23 01:14:06;;;;;;;1.70;0.80;;;;;;;;;;4921021;29;20083;-85
2022/11/23 01:16:35;;;;;;;1.10;0.70;;;;;;;;;;4904909;29;20123;-86
2022/11/23 01:19:03;;;;;;;0.80;0.80;;;;;;;;;;4904563;29;20036;-86
2022/11/23 01:21:31;;;;;;;0.85;0.70;;;;;;;;;;4921693;29;20036;-85
2022/11/23 01:23:56;;;;;;;1.65;0.93;;;;;;;;;;4903969;29;20096;-85
2022/11/23 01:26:22;;;;;;;0.85;0.80;;;;;;;;;;4921064;29;20028;-86
2022/11/23 01:28:48;;;;;;;1.48;1.00;;;;;;;;;;4903950;29;20047;-86
2022/11/23 01:31:20;;;;;;;1.27;0.85;;;;;;;;;;4904147;29;20036;-86
2022/11/23 01:33:46;;;;;;;0.95;0.80;;;;;;;;;;4919783;29;20040;-86
2022/11/23 01:36:14;;;;;;;2.17;1.00;;;;;;;;;;4904220;29;20099;-85
2022/11/23 01:38:42;;;;;;;1.00;0.90;;;;;;;;;;4903521;29;20040;-86
2022/11/23 01:41:13;;;;;;;1.25;1.00;;;;;;;;;;4903603;29;20454;-86
2022/11/23 01:43:39;;;;;;;1.25;0.82;;;;;;;;;;4904141;29;20039;-85
2022/11/23 01:46:05;;;;;;;1.27;1.00;;;;;;;;;;4904149;29;20139;-86
2022/11/23 01:48:43;;;;;;;1.80;1.08;;;;;;;;;;4888649;29;20508;-86
2022/11/23 01:51:15;;;;;;;1.70;1.10;;;;;;;;;;4921345;29;20043;-86
2022/11/23 01:53:42;;;;;;;1.73;1.00;;;;;;;;;;4903952;29;20470;-86
2022/11/23 01:56:11;;;;;;;1.20;0.95;;;;;;;;;;4903858;29;20517;-86
2022/11/23 01:58:42;;;;;;;1.00;0.90;;;;;;;;;;4888823;29;20043;-86
2022/11/23 02:01:08;;;;;;;1.88;1.00;;;;;;;;;;4904929;29;20040;-86
2022/11/23 02:03:36;;;;;;;1.10;0.80;;;;;;;;;;4889431;29;20059;-85
2022/11/23 02:06:12;;;;;;;1.27;0.90;;;;;;;;;;4903685;29;20099;-85
2022/11/23 02:08:38;;;;;;;1.30;1.10;;;;;;;;;;4906491;29;20063;-86
2022/11/23 02:11:04;;;;;;;1.35;1.10;;;;;;;;;;4906702;29;20040;-84
2022/11/23 02:13:29;;;;;;;1.83;1.05;;;;;;;;;;4906467;29;20039;-85
2022/11/23 02:15:56;;;;;;;1.33;1.00;;;;;;;;;;4905413;29;20043;-85
2022/11/23 02:18:25;;;;;;;1.63;1.00;;;;;;;;;;4905985;29;20067;-86
2022/11/23 02:20:52;;;;;;;1.63;1.00;;;;;;;;;;4890702;29;20040;-85
2022/11/23 02:23:40;;;;;;;1.60;0.98;;;;;;;;;;4906138;29;20023;-85
2022/11/23 02:26:22;;;;;;;1.50;1.17;;;;;;;;;;4905191;29;20557;-85
2022/11/23 02:29:18;;;;;;;1.63;1.02;;;;;;;;;;4905749;29;20044;-85
2022/11/23 02:31:43;;;;;;;1.75;1.10;;;;;;;;;;4924067;29;20133;-86
2022/11/23 02:34:09;;;;;;;1.65;1.10;;;;;;;;;;4909530;29;20063;-85
2022/11/23 02:36:35;;;;;;;1.50;1.20;;;;;;;;;;4926391;29;20049;-86
2022/11/23 02:39:09;;;;;;;0.98;0.90;;;;;;;;;;4926361;29;20059;-85
2022/11/23 02:41:44;;;;;;;2.00;1.15;;;;;;;;;;4894182;29;20044;-84
2022/11/23 02:44:45;;;;;;;1.50;0.90;;;;;;;;;;4893273;29;20090;-85
2022/11/23 02:47:12;;;;;;;2.40;1.30;;;;;;;;;;4921303;29;20048;-85
2022/11/23 02:49:40;;;;;;;1.10;0.90;;;;;;;;;;4908463;29;20079;-85
2022/11/23 02:52:05;;;;;;;1.50;1.10;;;;;;;;;;4907923;29;20043;-86
2022/11/23 02:54:31;;;;;;;3.17;1.25;;;;;;;;;;4925611;29;20044;-85
2022/11/23 02:56:56;;;;;;;1.20;1.10;;;;;;;;;;4892856;29;20044;-85
2022/11/23 02:59:22;;;;;;;1.40;1.02;;;;;;;;;;4908559;29;20046;-85
2022/11/23 03:01:49;;;;;;;1.40;1.10;;;;;;;;;;4908313;29;20508;-86
2022/11/23 03:04:15;;;;;;;2.05;1.10;;;;;;;;;;4909051;29;20119;-85
2022/11/23 03:06:41;;;;;;;1.45;1.10;;;;;;;;;;4926507;29;20032;-86
2022/11/23 03:09:07;;;;;;;2.05;1.35;;;;;;;;;;4893614;29;20032;-85
2022/11/23 03:11:32;;;;;;;1.50;1.27;;;;;;;;;;4909025;29;20063;-86
2022/11/23 03:13:58;;;;;;;1.73;1.02;;;;;;;;;;4923978;29;20068;-85
2022/11/23 03:16:26;;;;;;;1.70;1.08;;;;;;;;;;4894447;29;20091;-86
2022/11/23 03:18:51;;;;;;;0.80;0.80;;;;;;;;;;4908065;29;20036;-85
2022/11/23 03:21:17;;;;;;;1.27;1.05;;;;;;;;;;4893554;29;20036;-86
2022/11/23 03:23:43;;;;;;;1.05;0.88;;;;;;;;;;4908786;29;20036;-85
2022/11/23 03:26:11;;;;;;;1.70;1.10;;;;;;;;;;4925009;29;20043;-85
2022/11/23 03:28:42;;;;;;;2.30;1.00;;;;;;;;;;4908799;29;20512;-86
2022/11/23 03:31:08;;;;;;;1.48;1.17;;;;;;;;;;4907613;29;20206;-85
2022/11/23 03:33:35;;;;;;;2.15;1.42;;;;;;;;;;4908137;29;20405;-85
2022/11/23 03:36:00;;;;;;;1.73;1.02;;;;;;;;;;4908494;29;20040;-86
2022/11/23 03:38:33;;;;;;;1.20;1.10;;;;;;;;;;4908990;29;20040;-85
2022/11/23 03:40:59;;;;;;;1.10;1.00;;;;;;;;;;4908500;29;20040;-85
2022/11/23 03:43:31;;;;;;;1.17;0.88;;;;;;;;;;4907309;29;20039;-86
2022/11/23 03:45:57;;;;;;;2.78;1.00;;;;;;;;;;4891438;29;20086;-86
2022/11/23 03:48:22;;;;;;;1.20;1.00;;;;;;;;;;4924558;29;20520;-87
2022/11/23 03:50:48;;;;;;;2.15;1.00;;;;;;;;;;4891864;29;20024;-86
2022/11/23 03:53:14;;;;;;;1.27;1.10;;;;;;;;;;4908406;29;20047;-85
2022/11/23 03:55:39;;;;;;;1.50;1.20;;;;;;;;;;4908397;29;20040;-85
2022/11/23 03:58:05;;;;;;;1.83;1.20;;;;;;;;;;4907919;29;20032;-85
2022/11/23 04:00:34;;;;;;;1.15;1.00;;;;;;;;;;4908214;29;20032;-85
2022/11/23 04:02:59;;;;;;;1.30;1.00;;;;;;;;;;4891704;29;20031;-85
2022/11/23 04:05:44;;;;;;;1.27;0.90;;;;;;;;;;4924242;29;20075;-85
2022/11/23 04:08:44;;;;;;;1.08;0.80;;;;;;;;;;4905561;29;20040;-85
2022/11/23 04:11:17;;;;;;;1.10;0.90;;;;;;;;;;4922744;29;20091;-86
2022/11/23 04:13:47;;;;;;;1.33;1.00;;;;;;;;;;4890801;29;20044;-85
2022/11/23 04:16:13;;;;;;;1.00;0.90;;;;;;;;;;4906043;29;20047;-86
2022/11/23 04:18:39;;;;;;;1.00;0.90;;;;;;;;;;4906777;29;20119;-86
2022/11/23 04:21:06;;;;;;;1.20;1.00;;;;;;;;;;4906509;29;20047;-86
2022/11/23 04:23:32;;;;;;;1.45;1.02;;;;;;;;;;4907533;29;20035;-85
2022/11/23 04:25:58;;;;;;;1.88;1.00;;;;;;;;;;4907473;29;20068;-85
2022/11/23 04:28:24;;;;;;;1.10;1.00;;;;;;;;;;4907674;29;20067;-86
2022/11/23 04:30:50;;;;;;;1.10;0.77;;;;;;;;;;4891703;29;20032;-85
2022/11/23 04:33:17;;;;;;;1.30;0.80;;;;;;;;;;4907132;29;20047;-85
2022/11/23 04:35:43;;;;;;;1.55;1.00;;;;;;;;;;4906444;29;20079;-85
2022/11/23 04:38:08;;;;;;;1.77;1.00;;;;;;;;;;4907120;29;20031;-85
2022/11/23 04:40:35;;;;;;;1.23;1.10;;;;;;;;;;4906478;29;20047;-86
2022/11/23 04:43:02;;;;;;;1.15;1.05;;;;;;;;;;4907005;29;20035;-84
2022/11/23 04:45:32;;;;;;;1.65;1.00;;;;;;;;;;4906070;29;20179;-84
2022/11/23 04:48:02;;;;;;;1.08;0.90;;;;;;;;;;4891722;29;20047;-85
2022/11/23 04:50:27;;;;;;;1.05;0.93;;;;;;;;;;4906458;29;20028;-85
2022/11/23 04:52:55;;;;;;;1.52;0.82;;;;;;;;;;4905822;29;20509;-86
2022/11/23 04:55:27;;;;;;;1.20;0.88;;;;;;;;;;4892000;29;20052;-85
2022/11/23 04:57:59;;;;;;;1.13;0.80;;;;;;;;;;4907007;29;20087;-85
2022/11/23 05:00:28;;;;;;;0.88;0.80;;;;;;;;;;4906351;29;20043;-86
2022/11/23 05:02:59;;;;;;;1.33;0.82;;;;;;;;;;4921824;29;20058;-85
2022/11/23 05:05:27;;;;;;;1.15;0.88;;;;;;;;;;4906307;29;20549;-85
2022/11/23 05:07:53;;;;;;;1.23;0.90;;;;;;;;;;4906815;29;20105;-84
2022/11/23 05:10:21;;;;;;;0.90;0.90;;;;;;;;;;4905958;29;20038;-86
2022/11/23 05:12:47;;;;;;;1.05;0.90;;;;;;;;;;4905426;29;20104;-84
2022/11/23 05:15:13;;;;;;;6.57;3.28;;;;;;;;;;4904758;29;20028;-84
2022/11/23 05:17:39;;;;;;;11.50;4.15;;;;;;;;;;4904869;29;20060;-85
2022/11/23 05:20:11;;;;;;;2.20;1.40;;;;;;;;;;4905741;29;20042;-85
2022/11/23 05:22:42;;;;;;;2.70;2.08;;;;;;;;;;4891557;29;20044;-85
2022/11/23 05:25:11;;;;;;;3.05;1.50;;;;;;;;;;4890498;29;20509;-85
2022/11/23 05:27:37;;;;;;;1.30;1.20;;;;;;;;;;4922764;29;20032;-84
2022/11/23 05:30:03;;;;;;;2.40;1.40;;;;;;;;;;4905900;29;20043;-84
2022/11/23 05:32:29;;;;;;;2.20;1.60;;;;;;;;;;4905845;29;20405;-85
2022/11/23 05:34:57;;;;;;;2.13;1.60;;;;;;;;;;4905375;29;20059;-85
2022/11/23 05:37:25;;;;;;;2.42;1.75;;;;;;;;;;4905980;29;20060;-85
2022/11/23 05:39:56;;;;;;;7.22;3.47;;;;;;;;;;4906004;29;20044;-86
2022/11/23 05:42:23;;;;;;;3.33;2.10;;;;;;;;;;4914350;23;20048;-87
2022/11/23 05:44:50;;;;;;;3.78;2.10;;;;;;;;;;4881151;29;20096;-89
2022/11/23 05:47:25;;;;;;;2.00;1.55;;;;;;;;;;4882244;29;20371;-88
2022/11/23 05:49:51;;;;;;;1.60;1.25;;;;;;;;;;4881507;29;20028;-89
2022/11/23 05:52:20;;;;;;;3.45;1.30;;;;;;;;;;4881725;29;20044;-89
2022/11/23 05:54:49;;;;;;;3.28;1.50;;;;;;;;;;4881373;29;20618;-90
2022/11/23 05:57:14;;;;;;;3.88;2.03;;;;;;;;;;4882016;29;20033;-88
2022/11/23 05:59:42;;;;;;;1.83;1.33;;;;;;;;;;4866112;29;20037;-88
2022/11/23 06:02:12;;;;;;;2.28;1.60;;;;;;;;;;4881414;29;20410;-87
2022/11/23 06:04:37;;;;;;;2.63;1.60;;;;;;;;;;4882984;29;20055;-88
2022/11/23 06:07:06;;;;;;;1.80;1.35;;;;;;;;;;4883752;29;20490;-87
2022/11/23 06:09:50;;;;;;;1.70;1.30;;;;;;;;;;4883482;29;20033;-88
2022/11/23 06:12:15;;;;;;;2.15;1.30;;;;;;;;;;4898696;29;20044;-89
2022/11/23 06:14:41;;;;;;;1.98;1.40;;;;;;;;;;4882734;29;20671;-88
2022/11/23 06:17:06;;;;;;;3.80;1.48;;;;;;;;;;4899008;29;20064;-88
2022/11/23 06:19:36;;;;;;;3.08;1.60;;;;;;;;;;4868768;29;20067;-88
2022/11/23 06:22:03;;;;;;;3.70;1.48;;;;;;;;;;4883703;29;20037;-88
2022/11/23 06:24:33;;;;;;;1.77;1.40;;;;;;;;;;4868802;29;20381;-88
2022/11/23 06:27:18;;;;;;;1.35;1.05;;;;;;;;;;4904500;29;20501;-87
2022/11/23 06:29:46;;;;;;;2.65;1.20;;;;;;;;;;4865347;29;20033;-89
2022/11/23 06:32:12;;;;;;;1.73;1.40;;;;;;;;;;4880585;29;20558;-89
2022/11/23 06:34:37;;;;;;;3.92;1.90;;;;;;;;;;4885820;29;20036;-87
2022/11/23 06:37:03;;;;;;;2.38;1.60;;;;;;;;;;4897729;29;20508;-85
2022/11/23 06:39:31;;;;;;;1.33;1.02;;;;;;;;;;4880197;29;20037;-87
2022/11/23 06:41:58;;;;;;;1.33;1.20;;;;;;;;;;4880168;29;20028;-87
2022/11/23 06:44:24;;;;;;;1.20;0.95;;;;;;;;;;4880241;29;20173;-87
2022/11/23 06:46:51;;;;;;;1.38;0.90;;;;;;;;;;4880157;29;20037;-86
2022/11/23 06:49:19;;;;;;;0.88;0.80;;;;;;;;;;4897271;29;20044;-89
2022/11/23 06:51:55;;;;;;;1.20;0.70;;;;;;;;;;4892919;29;20570;-87
2022/11/23 06:54:20;;;;;;;0.90;0.75;;;;;;;;;;4861598;29;20129;-87
2022/11/23 06:56:45;;;;;;;1.00;0.80;;;;;;;;;;4862215;29;20049;-88
2022/11/23 06:59:12;;;;;;;1.13;0.70;;;;;;;;;;4862034;29;20021;-87
2022/11/23 07:01:38;;;;;;;0.98;0.80;;;;;;;;;;4890718;29;20037;-89
2022/11/23 07:04:07;;;;;;;1.00;0.70;;;;;;;;;;4896433;29;20032;-88
2022/11/23 07:06:41;;;;;;;1.48;0.80;;;;;;;;;;4912073;29;20405;-89
2022/11/23 07:09:16;;;;;;;1.20;0.70;;;;;;;;;;4866834;29;20569;-88
2022/11/23 07:12:10;;;;;;;1.48;0.80;;;;;;;;;;4887107;29;20048;-90
2022/11/23 07:14:36;;;;;;;1.70;0.88;;;;;;;;;;4880188;29;20108;-89
2022/11/23 07:17:01;;;;;;;0.70;0.70;;;;;;;;;;4898584;29;20136;-89
2022/11/23 07:19:27;;;;;;;1.15;0.88;;;;;;;;;;4885345;29;20486;-90
2022/11/23 07:21:56;;;;;;;1.05;0.77;;;;;;;;;;4901109;29;20043;-89
2022/11/23 07:24:21;;;;;;;0.90;0.90;;;;;;;;;;4902565;29;20410;-89
2022/11/23 07:26:47;;;;;;;1.48;0.98;;;;;;;;;;4886116;29;20044;-88
2022/11/23 07:29:12;;;;;;;1.70;1.08;;;;;;;;;;4907691;29;20044;-89
2022/11/23 07:31:38;;;;;;;2.40;1.60;;;;;;;;;;4884103;29;20072;-89
2022/11/23 07:34:04;;;;;;;1.38;1.00;;;;;;;;;;4883460;29;20064;-89
2022/11/23 07:36:30;;;;;;;1.33;1.00;;;;;;;;;;4883591;29;20032;-89
2022/11/23 07:38:55;;;;;;;1.02;0.90;;;;;;;;;;4883645;29;20056;-89
2022/11/23 07:41:21;;;;;;;0.95;0.85;;;;;;;;;;4883561;29;20047;-88
2022/11/23 07:44:06;;;;;;;2.35;1.50;;;;;;;;;;4883425;29;20422;-88
2022/11/23 07:46:32;;;;;;;3.78;1.77;;;;;;;;;;4899161;29;20096;-88
2022/11/23 07:49:01;;;;;;;2.58;1.30;;;;;;;;;;4898766;29;20037;-88
2022/11/23 07:51:27;;;;;;;1.73;1.10;;;;;;;;;;4884058;29;20396;-87
2022/11/23 07:53:53;;;;;;;1.45;0.90;;;;;;;;;;4900567;29;20425;-88
2022/11/23 07:56:18;;;;;;;1.17;0.90;;;;;;;;;;4898787;29;20111;-89
2022/11/23 07:58:44;;;;;;;2.25;1.10;;;;;;;;;;4899444;29;20410;-88
2022/11/23 08:01:16;;;;;;;2.42;1.10;;;;;;;;;;4898903;29;20502;-88
2022/11/23 08:03:42;;;;;;;2.30;1.10;;;;;;;;;;4903145;29;20044;-87
2022/11/23 08:06:12;;;;;;;1.70;1.10;;;;;;;;;;4883742;29;20032;-88
2022/11/23 08:08:38;;;;;;;2.33;1.30;;;;;;;;;;4883141;29;20075;-88
2022/11/23 08:11:08;;;;;;;1.88;1.17;;;;;;;;;;4899882;29;20076;-88
2022/11/23 08:13:33;;;;;;;3.03;1.45;;;;;;;;;;4900248;29;20048;-90
2022/11/23 08:15:59;;;;;;;2.15;1.27;;;;;;;;;;4900441;29;20043;-88
2022/11/23 08:18:25;;;;;;;2.97;1.75;;;;;;;;;;4883202;29;20032;-86
2022/11/23 08:20:51;;;;;;;4.70;2.15;;;;;;;;;;4882848;29;20049;-73
2022/11/23 08:23:17;;;;;;;3.58;1.70;;;;;;;;;;4898109;29;20107;-74
2022/11/23 08:25:43;;;;;;;4.80;2.10;;;;;;;;;;4889861;29;20033;-73
2022/11/23 08:28:08;;;;;;;3.63;2.25;;;;;;;;;;4879051;29;20161;-77
2022/11/23 08:30:34;;;;;;;5.43;1.92;;;;;;;;;;4881105;29;20477;-89
2022/11/23 08:33:07;;;;;;;4.00;1.92;;;;;;;;;;4880586;29;20037;-88
2022/11/23 08:35:34;;;;;;;2.67;1.80;;;;;;;;;;4880965;29;20041;-86
2022/11/23 08:37:59;;;;;;;2.30;1.50;;;;;;;;;;4879541;29;20029;-84
2022/11/23 08:40:25;;;;;;;3.72;1.70;;;;;;;;;;4880414;29;20071;-87
2022/11/23 08:42:50;;;;;;;2.65;1.50;;;;;;;;;;4879873;29;20060;-88
2022/11/23 08:45:17;;;;;;;2.50;1.40;;;;;;;;;;4848489;29;20053;-86
2022/11/23 08:47:42;;;;;;;1.98;1.40;;;;;;;;;;4880172;29;20133;-89
2022/11/23 08:50:08;;;;;;;2.83;1.48;;;;;;;;;;4880114;29;20037;-88
2022/11/23 08:52:34;;;;;;;1.80;1.23;;;;;;;;;;4880341;29;20036;-88
2022/11/23 08:55:00;;;;;;;1.48;1.00;;;;;;;;;;4863279;29;20041;-87
2022/11/23 08:57:26;;;;;;;2.28;1.30;;;;;;;;;;4898088;29;20036;-87
2022/11/23 08:59:51;;;;;;;1.65;1.10;;;;;;;;;;4896826;29;20449;-88
2022/11/23 09:02:17;;;;;;;2.40;0.95;;;;;;;;;;4884236;29;20069;-88
2022/11/23 09:04:42;;;;;;;1.30;0.90;;;;;;;;;;4864124;29;20517;-87
2022/11/23 09:07:08;;;;;;;3.60;1.20;;;;;;;;;;4881633;29;20430;-86
2022/11/23 09:09:33;;;;;;;2.22;1.15;;;;;;;;;;4881418;29;20032;-87
2022/11/23 09:11:59;;;;;;;1.65;1.00;;;;;;;;;;4881730;29;20044;-88
2022/11/23 09:14:26;;;;;;;2.10;1.00;;;;;;;;;;4881058;29;20180;-88
2022/11/23 09:16:55;;;;;;;2.33;1.30;;;;;;;;;;4881915;29;20048;-87
2022/11/23 09:19:20;;;;;;;2.17;1.38;;;;;;;;;;4881790;29;20052;-88
2022/11/23 09:21:46;;;;;;;3.22;1.60;;;;;;;;;;4882491;29;20037;-87
2022/11/23 09:24:12;;;;;;;3.00;1.50;;;;;;;;;;4883024;29;20480;-87
2022/11/23 09:26:38;;;;;;;2.70;1.13;;;;;;;;;;4882993;29;20114;-87
2022/11/23 09:29:04;;;;;;;2.30;1.30;;;;;;;;;;4884671;29;20041;-88
2022/11/23 09:31:30;;;;;;;2.55;1.30;;;;;;;;;;4890618;29;20084;-88
2022/11/23 09:33:55;;;;;;;2.13;1.20;;;;;;;;;;4880422;29;20048;-89
2022/11/23 09:36:24;;;;;;;3.17;1.58;;;;;;;;;;4864373;29;20044;-88
2022/11/23 09:38:50;;;;;;;3.72;2.42;;;;;;;;;;4880435;29;20043;-89
2022/11/23 09:41:34;;;;;;;3.35;1.50;;;;;;;;;;4862820;29;20033;-88
2022/11/23 09:44:06;;;;;;;5.35;2.53;;;;;;;;;;4863328;29;20124;-89
2022/11/23 09:46:47;;;;;;;5.20;2.90;;;;;;;;;;4879938;29;20041;-89
2022/11/23 09:49:19;;;;;;;3.67;1.85;;;;;;;;;;4863431;29;20089;-89
2022/11/23 09:51:45;;;;;;;3.22;1.40;;;;;;;;;;4880327;29;20040;-88
2022/11/23 09:54:26;;;;;;;3.33;1.90;;;;;;;;;;4878984;29;20116;-88
2022/11/23 09:56:54;;;;;;;4.97;2.38;;;;;;;;;;4863045;29;20514;-87
2022/11/23 09:59:35;;;;;;;3.90;1.70;;;;;;;;;;4879944;29;20053;-89
2022/11/23 10:02:01;;;;;;;3.97;1.60;;;;;;;;;;4880548;29;20079;-89
2022/11/23 10:04:32;;;;;;;2.92;1.38;;;;;;;;;;4880482;29;20033;-87
2022/11/23 10:07:10;;;;;;;2.88;1.50;;;;;;;;;;4891461;29;20108;-89
2022/11/23 10:09:38;;;;;;;3.17;1.33;;;;;;;;;;4878333;29;20033;-87
2022/11/23 10:12:48;;;;;;;4.03;1.45;;;;;;;;;;4878149;29;20041;-88
2022/11/23 10:15:38;;;;;;;3.75;1.25;;;;;;;;;;4817426;29;20043;-86
2022/11/23 10:18:22;;;;;;;5.47;2.30;;;;;;;;;;4875200;29;20049;-88
2022/11/23 10:21:00;;;;;;;3.70;1.60;;;;;;;;;;4878470;29;20469;-87
2022/11/23 10:23:35;;;;;;;2.90;1.30;;;;;;;;;;4881869;29;20281;-88
2022/11/23 10:26:00;;;;;;;2.90;1.40;;;;;;;;;;4883113;29;20029;-88
2022/11/23 10:28:28;;;;;;;3.40;1.40;;;;;;;;;;4884154;29;20466;-88
2022/11/23 10:31:15;;;;;;;3.33;1.60;;;;;;;;;;4850586;29;20048;-87
2022/11/23 10:34:17;;;;;;;3.95;1.90;;;;;;;;;;4874753;29;20070;-88
2022/11/23 10:36:43;;;;;;;3.85;1.65;;;;;;;;;;4870507;29;20053;-87
2022/11/23 10:39:24;;;;;;;4.82;2.40;;;;;;;;;;4888408;29;20037;-89
2022/11/23 10:41:50;;;;;;;5.10;1.80;;;;;;;;;;4885890;29;20105;-88
2022/11/23 10:44:35;;;;;;;2.83;1.40;;;;;;;;;;4886573;29;20028;-89
2022/11/23 10:47:00;;;;;;;2.85;1.10;;;;;;;;;;4885029;29;20041;-88
2022/11/23 10:49:28;;;;;;;2.45;1.10;;;;;;;;;;4887361;29;20045;-89
2022/11/23 10:52:26;;;;;;;2.85;1.17;;;;;;;;;;4888534;29;20044;-89
2022/11/23 10:54:54;;;;;;;3.10;1.50;;;;;;;;;;4889724;29;20079;-88
2022/11/23 10:57:28;;;;;;;2.67;1.30;;;;;;;;;;4890712;29;20508;-89
2022/11/23 10:59:58;;;;;;;2.03;1.00;;;;;;;;;;4890461;29;20049;-90
2022/11/23 11:02:24;;;;;;;2.30;0.90;;;;;;;;;;4886244;29;20133;-90
2022/11/23 11:04:50;;;;;;;3.30;1.00;;;;;;;;;;4886827;29;20036;-89
2022/11/23 11:07:28;;;;;;;2.85;1.15;;;;;;;;;;4887523;29;20400;-90
2022/11/23 11:09:58;;;;;;;1.90;1.17;;;;;;;;;;4887871;29;20037;-87
2022/11/23 11:12:25;;;;;;;1.35;0.95;;;;;;;;;;4887163;29;20060;-88
2022/11/23 11:15:01;;;;;;;1.65;1.20;;;;;;;;;;4869757;29;20491;-91
2022/11/23 11:17:29;;;;;;;2.50;1.50;;;;;;;;;;4870574;29;20037;-90
2022/11/23 11:19:55;;;;;;;4.07;2.22;;;;;;;;;;4886559;29;20585;-89
2022/11/23 11:22:39;;;;;;;4.95;2.10;;;;;;;;;;4885672;29;20048;-89
2022/11/23 11:25:06;;;;;;;3.70;2.00;;;;;;;;;;4867571;29;20041;-89
2022/11/23 11:27:32;;;;;;;4.03;1.80;;;;;;;;;;4890168;29;20075;-89
2022/11/23 11:30:19;;;;;;;4.13;2.50;;;;;;;;;;4869603;29;20071;-90
2022/11/23 11:33:10;;;;;;;6.68;3.03;;;;;;;;;;4884579;29;20484;-88
2022/11/23 11:35:39;;;;;;;3.53;1.38;;;;;;;;;;4893339;29;20048;-91
2022/11/23 11:38:13;;;;;;;7.68;3.67;;;;;;;;;;4872292;29;20033;-87
2022/11/23 11:40:46;;;;;;;7.22;3.40;;;;;;;;;;4870125;29;20040;-88
2022/11/23 11:43:27;;;;;;;5.15;2.30;;;;;;;;;;4917785;23;20506;-85
2022/11/23 11:45:57;;;;;;;3.72;1.63;;;;;;;;;;4905942;29;20050;-84
2022/11/23 11:48:29;;;;;;;6.35;1.80;;;;;;;;;;4922756;29;20031;-84
2022/11/23 11:51:09;;;;;;;4.55;1.83;;;;;;;;;;4923793;29;20039;-85
2022/11/23 11:53:45;;;;;;;5.05;2.00;;;;;;;;;;4923294;29;20043;-84
2022/11/23 11:56:33;;;;;;;4.70;1.95;;;;;;;;;;4923004;29;20107;-84
2022/11/23 11:59:25;;;;;;;3.17;1.70;;;;;;;;;;4922773;29;20176;-88
2022/11/23 12:02:06;;;;;;;3.33;1.60;;;;;;;;;;4905782;29;20064;-84
2022/11/23 12:05:01;;;;;;;3.58;1.67;;;;;;;;;;4904809;29;20051;-82
2022/11/23 12:07:44;;;;;;;3.63;1.70;;;;;;;;;;4902093;29;20060;-86
2022/11/23 12:10:16;;;;;;;;;;;;;;;;;;4922462;29;20040;-86
2022/11/23 12:12:41;;;;;;;6.35;1.92;;;;;;;;;;4905221;29;19986;-85
2022/11/23 12:15:18;;;;;;;4.53;1.63;;;;;;;;;;4904940;29;20036;-85
2022/11/23 12:18:02;;;;;;;2.63;1.20;;;;;;;;;;4923956;29;20040;-85
2022/11/23 12:20:46;;;;;;;4.70;1.67;;;;;;;;;;4906608;29;20044;-84
2022/11/23 12:23:27;;;;;;;2.60;1.17;;;;;;;;;;4923665;29;20048;-84
2022/11/23 12:26:15;;;;;;;2.88;1.40;;;;;;;;;;4922568;29;20040;-86
2022/11/23 12:28:59;;;;;;;2.72;1.20;;;;;;;;;;4895693;29;20517;-85
2022/11/23 12:31:49;;;;;;;1.83;1.08;;;;;;;;;;4923166;29;20032;-84
2022/11/23 12:34:46;;;;;;;2.20;1.10;;;;;;;;;;4922341;29;20075;-85
2022/11/23 12:37:38;;;;;;;2.47;1.00;;;;;;;;;;4905338;29;20036;-85
2022/11/23 12:40:13;;;;;;;2.92;1.33;;;;;;;;;;4904482;29;20032;-85
2022/11/23 12:42:44;;;;;;;2.42;1.08;;;;;;;;;;4921547;29;20048;-85
2022/11/23 12:45:25;;;;;;;2.33;1.08;;;;;;;;;;4921543;29;20067;-85
2022/11/23 12:48:14;;;;;;;1.80;1.00;;;;;;;;;;4921354;29;20036;-85
2022/11/23 12:50:59;;;;;;;1.77;0.95;;;;;;;;;;4890702;29;20569;-85
2022/11/23 12:53:38;;;;;;;4.07;1.20;;;;;;;;;;4921644;29;20100;-84
2022/11/23 12:56:19;;;;;;;3.28;1.25;;;;;;;;;;4904044;29;20402;-85
2022/11/23 12:58:46;;;;;;;4.15;1.10;;;;;;;;;;4904058;29;20051;-83
2022/11/23 13:01:20;;;;;;;2.40;1.00;;;;;;;;;;4921420;29;20035;-85
2022/11/23 13:03:55;;;;;;;1.42;1.05;;;;;;;;;;4904009;29;20051;-84
2022/11/23 13:06:36;;;;;;;2.58;1.20;;;;;;;;;;4921159;29;20099;-82
2022/11/23 13:09:38;;;;;;;3.33;1.30;;;;;;;;;;4904674;29;20040;-86
2022/11/23 13:12:24;;;;;;;2.90;1.50;;;;;;;;;;4904312;29;20051;-87
2022/11/23 13:15:13;;;;;;;5.03;1.35;;;;;;;;;;4894416;29;20084;-85
2022/11/23 13:17:47;;;;;;;6.82;1.50;;;;;;;;;;4885487;29;20093;-84
2022/11/23 13:20:27;;;;;;;4.38;1.40;;;;;;;;;;4904756;29;20028;-82
2022/11/23 13:22:56;;;;;;;3.65;1.17;;;;;;;;;;4896630;29;20036;-84
2022/11/23 13:25:23;;;;;;;4.93;1.35;;;;;;;;;;4930104;29;20032;-84
2022/11/23 13:27:48;;;;;;;2.63;1.10;;;;;;;;;;4914003;29;20037;-85
2022/11/23 13:30:34;;;;;;;6.65;1.70;;;;;;;;;;4913868;29;20034;-85
2022/11/23 13:33:15;;;;;;;4.45;1.83;;;;;;;;;;4929679;29;20036;-85
2022/11/23 13:35:41;;;;;;;3.05;1.33;;;;;;;;;;4915612;29;20442;-85
2022/11/23 13:38:12;;;;;;;2.58;1.23;;;;;;;;;;4898524;29;20525;-84
2022/11/23 13:40:38;;;;;;;7.45;1.63;;;;;;;;;;4903039;29;20048;-83
2022/11/23 13:43:30;;;;;;;6.20;2.15;;;;;;;;;;4915021;29;20099;-83
2022/11/23 13:46:19;;;;;;;2.58;0.95;;;;;;;;;;4918602;29;20681;-86
2022/11/23 13:48:46;;;;;;;2.10;1.10;;;;;;;;;;4904275;29;20032;-84
2022/11/23 13:51:22;;;;;;;1.60;0.82;;;;;;;;;;4903830;29;20433;-85
2022/11/23 13:54:29;;;;;;;4.03;1.20;;;;;;;;;;4903159;29;20040;-84
2022/11/23 13:57:03;;;;;;;1.98;1.05;;;;;;;;;;4903475;29;20059;-83
2022/11/23 13:59:32;;;;;;;4.43;1.40;;;;;;;;;;4920841;29;20040;-86
2022/11/23 14:02:06;;;;;;;2.72;1.40;;;;;;;;;;4921477;29;20051;-86
2022/11/23 14:04:38;;;;;;;8.70;1.38;;;;;;;;;;4904454;29;20051;-85
2022/11/23 14:07:08;;;;;;;3.25;1.40;;;;;;;;;;4904596;29;20103;-85
2022/11/23 14:09:37;;;;;;;2.60;1.20;;;;;;;;;;4921411;29;20044;-85
2022/11/23 14:12:02;;;;;;;3.28;1.40;;;;;;;;;;4935198;29;20024;-85
2022/11/23 14:14:54;;;;;;;2.60;1.30;;;;;;;;;;4921084;29;20123;-87
2022/11/23 14:17:29;;;;;;;2.30;1.50;;;;;;;;;;4872914;29;20048;-85
2022/11/23 14:20:00;;;;;;;3.75;2.03;;;;;;;;;;4902401;29;20439;-86
2022/11/23 14:22:35;;;;;;;5.03;2.38;;;;;;;;;;4901997;29;20631;-86
2022/11/23 14:25:25;;;;;;;11.35;2.08;;;;;;;;;;4884777;29;20410;-86
2022/11/23 14:28:08;;;;;;;4.30;2.13;;;;;;;;;;4904969;29;20041;-85
2022/11/23 14:31:04;;;;;;;3.35;1.85;;;;;;;;;;4904751;29;20498;-88
2022/11/23 14:34:03;;;;;;;4.30;2.15;;;;;;;;;;4904741;29;20032;-84
2022/11/23 14:36:47;;;;;;;6.07;2.97;;;;;;;;;;4887754;29;20036;-83
2022/11/23 14:39:25;;;;;;;7.15;2.80;;;;;;;;;;4887864;29;20116;-85
2022/11/23 14:41:59;;;;;;;4.93;2.00;;;;;;;;;;4872015;29;20502;-85
2022/11/23 14:44:26;;;;;;;3.03;1.80;;;;;;;;;;4904407;29;20207;-84
2022/11/23 14:47:00;;;;;;;5.90;2.15;;;;;;;;;;4888026;29;20036;-83
2022/11/23 14:49:25;;;;;;;7.68;3.10;;;;;;;;;;4888592;29;20465;-85
2022/11/23 14:51:51;;;;;;;4.57;2.33;;;;;;;;;;4905878;29;20037;-86
2022/11/23 14:54:18;;;;;;;3.60;2.25;;;;;;;;;;4889683;29;20040;-86
2022/11/23 14:56:46;;;;;;;4.53;2.50;;;;;;;;;;4890663;29;20125;-86
2022/11/23 14:59:21;;;;;;;4.38;2.70;;;;;;;;;;4889404;29;20062;-86
2022/11/23 15:01:54;;;;;;;4.75;2.45;;;;;;;;;;4906872;29;20044;-84
2022/11/23 15:04:27;;;;;;;5.28;2.95;;;;;;;;;;4874174;29;20041;-85
2022/11/23 15:06:59;;;;;;;4.95;3.10;;;;;;;;;;4888515;29;20096;-85
2022/11/23 15:09:40;;;;;;;12.73;5.80;;;;;;;;;;4905486;29;20036;-85